createdAt,value
2018-06-28T00:00:29.129Z,17.78
2018-06-28T00:01:28.930Z,17.78
2018-06-28T00:02:28.941Z,17.72
2018-06-28T00:03:28.934Z,17.78
2018-06-28T00:04:28.942Z,17.70
2018-06-28T00:05:28.954Z,17.71
2018-06-28T00:06:28.943Z,17.64
2018-06-28T00:07:28.950Z,17.68
2018-06-28T00:08:29.158Z,17.63
2018-06-28T00:09:28.964Z,17.70
2018-06-28T00:10:28.962Z,17.64
2018-06-28T00:11:28.964Z,17.67
2018-06-28T00:12:28.974Z,17.72
2018-06-28T00:13:28.967Z,17.70
2018-06-28T00:14:29.196Z,17.79
2018-06-28T00:15:28.975Z,17.72
2018-06-28T00:16:29.193Z,17.76
2018-06-28T00:17:28.981Z,17.67
2018-06-28T00:18:29.188Z,17.67
2018-06-28T00:19:29.000Z,17.76
2018-06-28T00:20:28.992Z,17.72
2018-06-28T00:21:28.995Z,17.70
2018-06-28T00:22:29.201Z,17.59
2018-06-28T00:23:29.002Z,17.68
2018-06-28T00:24:29.006Z,17.57
2018-06-28T00:25:29.209Z,17.56
2018-06-28T00:26:29.023Z,17.52
2018-06-28T00:27:29.029Z,17.54
2018-06-28T00:28:29.038Z,17.63
2018-06-28T00:29:29.261Z,17.60
2018-06-28T00:30:29.039Z,17.57
2018-06-28T00:31:29.259Z,17.63
2018-06-28T00:32:29.248Z,17.67
2018-06-28T00:33:29.036Z,17.68
2018-06-28T00:34:29.052Z,17.68
2018-06-28T00:35:29.244Z,17.65
2018-06-28T00:36:29.044Z,17.65
2018-06-28T00:37:29.064Z,17.71
2018-06-28T00:38:29.065Z,17.59
2018-06-28T00:39:29.057Z,17.70
2018-06-28T00:40:29.081Z,17.49
2018-06-28T00:41:29.264Z,17.51
2018-06-28T00:42:29.064Z,17.56
2018-06-28T00:43:29.093Z,17.52
2018-06-28T00:44:29.274Z,17.42
2018-06-28T00:45:29.084Z,17.39
2018-06-28T00:46:29.291Z,17.34
2018-06-28T00:47:29.299Z,17.24
2018-06-28T00:48:29.296Z,17.31
2018-06-28T00:49:29.097Z,17.27
2018-06-28T00:50:29.103Z,17.27
2018-06-28T00:51:29.298Z,17.29
2018-06-28T00:52:29.106Z,17.23
2018-06-28T00:53:29.117Z,17.20
2018-06-28T00:54:29.128Z,17.12
2018-06-28T00:55:29.114Z,17.11
2018-06-28T00:56:29.107Z,17.12
2018-06-28T00:57:29.134Z,17.12
2018-06-28T00:58:29.114Z,17.11
2018-06-28T00:59:29.117Z,17.09
2018-06-28T01:00:29.347Z,17.12
2018-06-28T01:01:29.125Z,17.06
2018-06-28T01:02:29.128Z,17.08
2018-06-28T01:03:29.353Z,17.11
2018-06-28T01:04:29.137Z,17.12
2018-06-28T01:05:29.350Z,17.16
2018-06-28T01:06:29.140Z,17.26
2018-06-28T01:07:29.157Z,17.23
2018-06-28T01:08:29.161Z,17.29
2018-06-28T01:09:29.347Z,17.36
2018-06-28T01:10:29.150Z,17.42
2018-06-28T01:11:29.165Z,17.41
2018-06-28T01:12:29.175Z,17.36
2018-06-28T01:13:29.161Z,17.27
2018-06-28T01:14:29.381Z,17.26
2018-06-28T01:15:29.186Z,17.23
2018-06-28T01:16:29.202Z,17.22
2018-06-28T01:17:29.183Z,17.26
2018-06-28T01:18:29.185Z,17.22
2018-06-28T01:19:29.184Z,17.26
2018-06-28T01:20:29.181Z,17.20
2018-06-28T01:21:29.185Z,17.26
2018-06-28T01:22:29.193Z,17.24
2018-06-28T01:23:29.194Z,17.19
2018-06-28T01:24:29.208Z,17.23
2018-06-28T01:25:29.402Z,17.15
2018-06-28T01:26:29.402Z,17.19
2018-06-28T01:27:29.209Z,17.09
2018-06-28T01:28:29.218Z,17.11
2018-06-28T01:29:29.421Z,17.16
2018-06-28T01:30:29.416Z,17.14
2018-06-28T01:31:29.234Z,17.15
2018-06-28T01:32:29.420Z,17.14
2018-06-28T01:33:29.220Z,17.06
2018-06-28T01:34:29.252Z,17.08
2018-06-28T01:35:29.243Z,17.05
2018-06-28T01:36:29.251Z,17.05
2018-06-28T01:37:29.434Z,17.08
2018-06-28T01:38:29.439Z,17.09
2018-06-28T01:39:29.256Z,17.14
2018-06-28T01:40:29.245Z,17.11
2018-06-28T01:41:29.269Z,17.14
2018-06-28T01:42:29.250Z,17.20
2018-06-28T01:43:29.254Z,17.20
2018-06-28T01:44:29.262Z,17.27
2018-06-28T01:45:29.474Z,17.24
2018-06-28T01:46:29.281Z,17.26
2018-06-28T01:47:29.263Z,17.31
2018-06-28T01:48:29.265Z,17.36
2018-06-28T01:49:29.286Z,17.23
2018-06-28T01:50:29.277Z,17.27
2018-06-28T01:51:29.476Z,17.19
2018-06-28T01:52:29.282Z,17.11
2018-06-28T01:53:29.294Z,17.14
2018-06-28T01:54:29.286Z,17.19
2018-06-28T01:55:29.294Z,17.19
2018-06-28T01:56:29.313Z,17.16
2018-06-28T01:57:29.292Z,17.24
2018-06-28T01:58:29.321Z,17.20
2018-06-28T01:59:29.300Z,17.20
2018-06-28T02:00:29.303Z,17.19
2018-06-28T02:01:29.309Z,17.22
2018-06-28T02:02:29.308Z,17.23
2018-06-28T02:03:29.311Z,17.27
2018-06-28T02:04:29.311Z,17.22
2018-06-28T02:05:29.315Z,17.19
2018-06-28T02:06:29.319Z,17.19
2018-06-28T02:07:29.322Z,17.16
2018-06-28T02:08:29.334Z,17.16
2018-06-28T02:09:29.348Z,17.14
2018-06-28T02:10:29.341Z,17.11
2018-06-28T02:11:29.349Z,17.05
2018-06-28T02:12:29.348Z,17.08
2018-06-28T02:13:29.341Z,17.04
2018-06-28T02:14:29.561Z,16.99
2018-06-28T02:15:29.357Z,17.09
2018-06-28T02:16:29.555Z,16.99
2018-06-28T02:17:29.571Z,17.04
2018-06-28T02:18:29.364Z,17.01
2018-06-28T02:19:29.369Z,17.02
2018-06-28T02:20:29.578Z,16.89
2018-06-28T02:21:29.367Z,16.89
2018-06-28T02:22:29.365Z,16.89
2018-06-28T02:23:29.385Z,16.87
2018-06-28T02:24:29.404Z,16.86
2018-06-28T02:25:29.375Z,16.83
2018-06-28T02:26:29.596Z,16.86
2018-06-28T02:27:29.381Z,16.84
2018-06-28T02:28:29.399Z,16.78
2018-06-28T02:29:29.590Z,16.87
2018-06-28T02:30:29.399Z,16.89
2018-06-28T02:31:29.392Z,16.84
2018-06-28T02:32:29.398Z,16.89
2018-06-28T02:33:29.397Z,16.87
2018-06-28T02:34:29.419Z,16.91
2018-06-28T02:35:29.419Z,16.84
2018-06-28T02:36:29.406Z,16.93
2018-06-28T02:37:29.632Z,16.96
2018-06-28T02:38:29.422Z,16.97
2018-06-28T02:39:29.630Z,16.97
2018-06-28T02:40:29.439Z,17.01
2018-06-28T02:41:29.435Z,16.96
2018-06-28T02:42:29.424Z,17.04
2018-06-28T02:43:29.628Z,16.99
2018-06-28T02:44:29.430Z,16.99
2018-06-28T02:45:29.450Z,17.01
2018-06-28T02:46:29.459Z,16.96
2018-06-28T02:47:29.441Z,17.04
2018-06-28T02:48:29.441Z,16.97
2018-06-28T02:49:29.445Z,16.99
2018-06-28T02:50:29.447Z,17.02
2018-06-28T02:51:29.461Z,16.97
2018-06-28T02:52:29.464Z,17.01
2018-06-28T02:53:29.455Z,17.04
2018-06-28T02:54:29.459Z,17.01
2018-06-28T02:55:29.708Z,17.01
2018-06-28T02:56:29.476Z,17.05
2018-06-28T02:57:29.676Z,17.06
2018-06-28T02:58:29.671Z,17.06
2018-06-28T02:59:29.487Z,17.01
2018-06-28T03:00:29.484Z,16.97
2018-06-28T03:01:29.479Z,16.99
2018-06-28T03:02:29.510Z,17.05
2018-06-28T03:03:29.483Z,17.01
2018-06-28T03:04:29.487Z,17.06
2018-06-28T03:05:29.488Z,16.94
2018-06-28T03:06:29.706Z,17.01
2018-06-28T03:07:29.699Z,17.06
2018-06-28T03:08:29.505Z,17.01
2018-06-28T03:09:29.516Z,17.01
2018-06-28T03:10:29.519Z,17.01
2018-06-28T03:11:29.509Z,17.04
2018-06-28T03:12:29.522Z,17.02
2018-06-28T03:13:29.516Z,17.02
2018-06-28T03:14:29.537Z,17.04
2018-06-28T03:15:29.529Z,17.05
2018-06-28T03:16:29.736Z,16.96
2018-06-28T03:17:29.537Z,17.02
2018-06-28T03:18:29.539Z,17.02
2018-06-28T03:19:29.542Z,16.97
2018-06-28T03:20:29.546Z,16.97
2018-06-28T03:21:29.537Z,16.97
2018-06-28T03:22:29.541Z,17.06
2018-06-28T03:23:29.556Z,17.04
2018-06-28T03:24:29.549Z,17.08
2018-06-28T03:25:29.777Z,17.06
2018-06-28T03:26:29.565Z,17.16
2018-06-28T03:27:29.567Z,17.12
2018-06-28T03:28:29.555Z,17.08
2018-06-28T03:29:29.568Z,17.12
2018-06-28T03:30:29.576Z,17.12
2018-06-28T03:31:29.582Z,17.16
2018-06-28T03:32:29.593Z,17.14
2018-06-28T03:33:29.582Z,17.22
2018-06-28T03:34:29.584Z,17.27
2018-06-28T03:35:29.798Z,17.27
2018-06-28T03:36:29.580Z,17.29
2018-06-28T03:37:29.786Z,17.23
2018-06-28T03:38:29.798Z,17.30
2018-06-28T03:39:29.600Z,17.30
2018-06-28T03:40:29.600Z,17.31
2018-06-28T03:41:29.594Z,17.42
2018-06-28T03:42:29.810Z,17.38
2018-06-28T03:43:29.806Z,17.33
2018-06-28T03:44:29.619Z,17.34
2018-06-28T03:45:29.617Z,17.31
2018-06-28T03:46:29.609Z,17.34
2018-06-28T03:47:29.617Z,17.38
2018-06-28T03:48:29.620Z,17.38
2018-06-28T03:49:29.619Z,17.33
2018-06-28T03:50:29.622Z,17.36
2018-06-28T03:51:29.843Z,17.31
2018-06-28T03:52:29.630Z,17.29
2018-06-28T03:53:29.848Z,17.36
2018-06-28T03:54:29.633Z,17.38
2018-06-28T03:55:29.637Z,17.36
2018-06-28T03:56:29.641Z,17.39
2018-06-28T03:57:29.676Z,17.36
2018-06-28T03:58:29.647Z,17.34
2018-06-28T03:59:29.675Z,17.38
2018-06-28T04:00:29.659Z,17.34
2018-06-28T04:01:29.662Z,17.39
2018-06-28T04:02:29.671Z,17.33
2018-06-28T04:03:29.674Z,17.41
2018-06-28T04:04:29.675Z,17.41
2018-06-28T04:05:29.670Z,17.39
2018-06-28T04:06:29.746Z,17.41
2018-06-28T04:07:29.710Z,17.36
2018-06-28T04:08:29.881Z,17.41
2018-06-28T04:09:29.681Z,17.45
2018-06-28T04:10:29.685Z,17.44
2018-06-28T04:11:29.691Z,17.39
2018-06-28T04:12:29.695Z,17.44
2018-06-28T04:13:29.912Z,17.38
2018-06-28T04:14:29.902Z,17.34
2018-06-28T04:15:29.904Z,17.44
2018-06-28T04:16:29.707Z,17.45
2018-06-28T04:17:29.713Z,17.44
2018-06-28T04:18:29.727Z,17.38
2018-06-28T04:19:29.714Z,17.39
2018-06-28T04:20:29.919Z,17.41
2018-06-28T04:21:29.724Z,17.46
2018-06-28T04:22:29.734Z,17.60
2018-06-28T04:23:29.758Z,17.51
2018-06-28T04:24:29.729Z,17.41
2018-06-28T04:25:29.738Z,17.52
2018-06-28T04:26:29.739Z,17.48
2018-06-28T04:27:30.072Z,17.51
2018-06-28T04:28:29.746Z,17.54
2018-06-28T04:29:29.764Z,17.56
2018-06-28T04:30:29.761Z,17.57
2018-06-28T04:31:29.969Z,17.51
2018-06-28T04:32:29.768Z,17.51
2018-06-28T04:33:29.962Z,17.51
2018-06-28T04:34:29.767Z,17.57
2018-06-28T04:35:29.778Z,17.56
2018-06-28T04:36:29.784Z,17.57
2018-06-28T04:37:29.993Z,17.56
2018-06-28T04:38:29.793Z,17.56
2018-06-28T04:39:29.783Z,17.64
2018-06-28T04:40:29.780Z,17.54
2018-06-28T04:41:29.786Z,17.51
2018-06-28T04:42:29.789Z,17.56
2018-06-28T04:43:29.793Z,17.52
2018-06-28T04:44:29.795Z,17.60
2018-06-28T04:45:29.824Z,17.59
2018-06-28T04:46:29.825Z,17.60
2018-06-28T04:47:29.822Z,17.64
2018-06-28T04:48:29.820Z,17.68
2018-06-28T04:49:29.823Z,17.59
2018-06-28T04:50:29.825Z,17.71
2018-06-28T04:51:30.049Z,17.70
2018-06-28T04:52:30.032Z,17.70
2018-06-28T04:53:29.824Z,17.68
2018-06-28T04:54:29.832Z,17.79
2018-06-28T04:55:30.036Z,17.80
2018-06-28T04:56:29.833Z,17.83
2018-06-28T04:57:30.042Z,17.80
2018-06-28T04:58:29.839Z,17.87
2018-06-28T04:59:29.854Z,17.85
2018-06-28T05:00:30.062Z,17.89
2018-06-28T05:01:29.877Z,17.92
2018-06-28T05:02:30.055Z,17.90
2018-06-28T05:03:29.871Z,17.87
2018-06-28T05:04:29.858Z,17.89
2018-06-28T05:05:29.862Z,17.92
2018-06-28T05:06:30.078Z,17.97
2018-06-28T05:07:30.087Z,18.03
2018-06-28T05:08:29.873Z,17.98
2018-06-28T05:09:29.878Z,17.92
2018-06-28T05:10:29.881Z,17.98
2018-06-28T05:11:29.883Z,18.04
2018-06-28T05:12:29.887Z,17.97
2018-06-28T05:13:29.903Z,18.01
2018-06-28T05:14:29.921Z,18.07
2018-06-28T05:15:29.897Z,18.00
2018-06-28T05:16:29.917Z,18.13
2018-06-28T05:17:29.914Z,18.13
2018-06-28T05:18:30.118Z,18.15
2018-06-28T05:19:29.922Z,18.15
2018-06-28T05:20:29.914Z,18.22
2018-06-28T05:21:29.920Z,18.35
2018-06-28T05:22:29.919Z,18.33
2018-06-28T05:23:29.925Z,18.29
2018-06-28T05:24:29.938Z,18.34
2018-06-28T05:25:29.939Z,18.31
2018-06-28T05:26:30.137Z,18.37
2018-06-28T05:27:29.936Z,18.37
2018-06-28T05:28:29.996Z,18.41
2018-06-28T05:29:29.942Z,18.45
2018-06-28T05:30:29.949Z,18.53
2018-06-28T05:31:29.972Z,18.41
2018-06-28T05:32:30.174Z,18.53
2018-06-28T05:33:29.969Z,18.52
2018-06-28T05:34:29.971Z,18.63
2018-06-28T05:35:29.975Z,18.60
2018-06-28T05:36:29.967Z,18.75
2018-06-28T05:37:29.985Z,18.81
2018-06-28T05:38:30.180Z,18.88
2018-06-28T05:39:29.991Z,18.81
2018-06-28T05:40:30.196Z,18.89
2018-06-28T05:41:30.203Z,18.88
2018-06-28T05:42:29.991Z,18.88
2018-06-28T05:43:29.992Z,18.86
2018-06-28T05:44:30.208Z,18.89
2018-06-28T05:45:30.000Z,18.88
2018-06-28T05:46:30.004Z,18.93
2018-06-28T05:47:30.007Z,19.00
2018-06-28T05:48:30.035Z,19.08
2018-06-28T05:49:30.017Z,19.12
2018-06-28T05:50:30.219Z,19.09
2018-06-28T05:51:30.223Z,19.18
2018-06-28T05:52:30.034Z,19.15
2018-06-28T05:53:30.089Z,19.31
2018-06-28T05:54:30.243Z,19.21
2018-06-28T05:55:30.037Z,19.27
2018-06-28T05:56:30.041Z,19.30
2018-06-28T05:57:30.066Z,19.27
2018-06-28T05:58:30.283Z,19.26
2018-06-28T05:59:30.062Z,19.27
2018-06-28T06:00:30.064Z,19.40
2018-06-28T06:01:30.143Z,19.30
2018-06-28T06:02:30.088Z,19.34
2018-06-28T06:03:30.269Z,19.37
2018-06-28T06:04:30.096Z,19.36
2018-06-28T06:05:30.074Z,19.39
2018-06-28T06:06:30.076Z,19.36
2018-06-28T06:07:30.081Z,19.41
2018-06-28T06:08:30.081Z,19.40
2018-06-28T06:09:30.291Z,19.45
2018-06-28T06:10:30.093Z,19.49
2018-06-28T06:11:30.094Z,19.48
2018-06-28T06:12:30.309Z,19.45
2018-06-28T06:13:30.102Z,19.58
2018-06-28T06:14:30.121Z,19.64
2018-06-28T06:15:30.139Z,19.55
2018-06-28T06:16:30.324Z,19.69
2018-06-28T06:17:30.317Z,19.73
2018-06-28T06:18:30.118Z,19.79
2018-06-28T06:19:30.136Z,19.77
2018-06-28T06:20:30.331Z,19.77
2018-06-28T06:21:30.139Z,19.89
2018-06-28T06:22:30.136Z,19.95
2018-06-28T06:23:30.138Z,20.00
2018-06-28T06:24:30.141Z,20.09
2018-06-28T06:25:30.154Z,20.11
2018-06-28T06:26:30.333Z,20.29
2018-06-28T06:27:30.330Z,20.34
2018-06-28T06:28:30.159Z,20.32
2018-06-28T06:29:30.269Z,20.24
2018-06-28T06:30:30.370Z,20.25
2018-06-28T06:31:30.179Z,20.25
2018-06-28T06:32:30.387Z,20.24
2018-06-28T06:33:30.204Z,20.26
2018-06-28T06:34:30.180Z,20.41
2018-06-28T06:35:30.183Z,20.31
2018-06-28T06:36:30.390Z,20.36
2018-06-28T06:37:30.201Z,20.37
2018-06-28T06:38:30.195Z,20.39
2018-06-28T06:39:30.404Z,20.40
2018-06-28T06:40:30.202Z,20.40
2018-06-28T06:41:30.206Z,20.47
2018-06-28T06:42:30.211Z,20.59
2018-06-28T06:43:30.214Z,20.75
2018-06-28T06:44:30.218Z,20.80
2018-06-28T06:45:30.222Z,20.93
2018-06-28T06:46:30.227Z,20.88
2018-06-28T06:47:30.238Z,20.96
2018-06-28T06:48:30.234Z,20.95
2018-06-28T06:49:30.452Z,21.05
2018-06-28T06:50:30.243Z,21.14
2018-06-28T06:51:30.451Z,21.15
2018-06-28T06:52:30.455Z,21.06
2018-06-28T06:53:30.255Z,21.02
2018-06-28T06:54:30.259Z,21.21
2018-06-28T06:55:30.286Z,21.24
2018-06-28T06:56:30.267Z,21.32
2018-06-28T06:57:30.309Z,21.42
2018-06-28T06:58:30.273Z,21.52
2018-06-28T06:59:30.288Z,21.50
2018-06-28T07:00:30.412Z,21.55
2018-06-28T07:01:30.488Z,21.61
2018-06-28T07:02:30.493Z,21.62
2018-06-28T07:03:30.341Z,21.48
2018-06-28T07:04:30.322Z,21.51
2018-06-28T07:05:30.518Z,21.61
2018-06-28T07:06:30.307Z,21.54
2018-06-28T07:07:30.311Z,21.54
2018-06-28T07:08:30.329Z,21.52
2018-06-28T07:09:30.333Z,21.45
2018-06-28T07:10:30.409Z,21.50
2018-06-28T07:11:30.329Z,21.48
2018-06-28T07:12:30.333Z,21.58
2018-06-28T07:13:30.539Z,21.46
2018-06-28T07:14:30.351Z,21.66
2018-06-28T07:15:30.345Z,21.57
2018-06-28T07:16:30.348Z,21.51
2018-06-28T07:17:30.379Z,21.54
2018-06-28T07:18:30.376Z,21.60
2018-06-28T07:19:30.374Z,21.55
2018-06-28T07:20:30.377Z,21.60
2018-06-28T07:21:30.395Z,21.55
2018-06-28T07:22:30.372Z,21.60
2018-06-28T07:23:30.389Z,21.60
2018-06-28T07:24:30.398Z,21.60
2018-06-28T07:25:30.398Z,21.64
2018-06-28T07:26:30.390Z,21.70
2018-06-28T07:27:30.394Z,21.70
2018-06-28T07:28:30.707Z,21.80
2018-06-28T07:29:30.413Z,21.83
2018-06-28T07:30:30.406Z,21.89
2018-06-28T07:31:30.412Z,21.95
2018-06-28T07:32:30.622Z,22.04
2018-06-28T07:33:30.419Z,22.04
2018-06-28T07:34:30.640Z,22.15
2018-06-28T07:35:30.461Z,22.15
2018-06-28T07:36:30.439Z,22.15
2018-06-28T07:37:30.439Z,22.14
2018-06-28T07:38:30.444Z,22.14
2018-06-28T07:39:30.446Z,22.10
2018-06-28T07:40:30.450Z,22.25
2018-06-28T07:41:30.588Z,22.35
2018-06-28T07:42:30.490Z,22.54
2018-06-28T07:43:30.475Z,22.57
2018-06-28T07:44:30.672Z,22.55
2018-06-28T07:45:30.487Z,22.57
2018-06-28T07:46:30.478Z,22.38
2018-06-28T07:47:30.492Z,22.35
2018-06-28T07:48:30.487Z,22.43
2018-06-28T07:49:30.697Z,22.45
2018-06-28T07:50:30.495Z,22.45
2018-06-28T07:51:30.702Z,22.51
2018-06-28T07:52:30.505Z,22.39
2018-06-28T07:53:30.523Z,22.41
2018-06-28T07:54:30.541Z,22.47
2018-06-28T07:55:30.532Z,22.55
2018-06-28T07:56:30.522Z,22.57
2018-06-28T07:57:30.542Z,22.55
2018-06-28T07:58:30.733Z,22.65
2018-06-28T07:59:30.556Z,22.69
2018-06-28T08:00:30.543Z,22.76
2018-06-28T08:01:30.545Z,22.91
2018-06-28T08:02:30.554Z,23.02
2018-06-28T08:03:30.567Z,23.02
2018-06-28T08:04:30.588Z,23.06
2018-06-28T08:05:30.570Z,22.93
2018-06-28T08:06:30.582Z,22.93
2018-06-28T08:07:30.591Z,22.88
2018-06-28T08:08:30.607Z,22.96
2018-06-28T08:09:30.808Z,22.94
2018-06-28T08:10:30.795Z,22.94
2018-06-28T08:11:30.836Z,22.88
2018-06-28T08:12:30.596Z,22.94
2018-06-28T08:13:30.609Z,22.91
2018-06-28T08:14:30.614Z,22.96
2018-06-28T08:15:30.625Z,22.98
2018-06-28T08:16:30.645Z,23.02
2018-06-28T08:17:30.622Z,23.24
2018-06-28T08:18:30.651Z,23.66
2018-06-28T08:19:30.648Z,23.65
2018-06-28T08:20:30.647Z,23.69
2018-06-28T08:21:30.876Z,23.68
2018-06-28T08:22:30.859Z,23.87
2018-06-28T08:23:30.665Z,24.05
2018-06-28T08:24:30.679Z,24.08
2018-06-28T08:25:30.864Z,24.03
2018-06-28T08:26:30.673Z,24.28
2018-06-28T08:27:30.697Z,24.42
2018-06-28T08:28:30.676Z,24.68
2018-06-28T08:29:30.682Z,24.89
2018-06-28T08:30:30.888Z,24.86
2018-06-28T08:31:30.706Z,24.93
2018-06-28T08:32:30.694Z,24.85
2018-06-28T08:33:30.698Z,24.92
2018-06-28T08:34:30.716Z,24.93
2018-06-28T08:35:30.923Z,25.18
2018-06-28T08:36:30.725Z,25.22
2018-06-28T08:37:30.736Z,25.23
2018-06-28T08:38:30.740Z,25.23
2018-06-28T08:39:30.746Z,25.43
2018-06-28T08:40:30.939Z,25.44
2018-06-28T08:41:30.739Z,25.23
2018-06-28T08:42:30.744Z,25.07
2018-06-28T08:43:30.762Z,24.89
2018-06-28T08:44:30.755Z,24.70
2018-06-28T08:45:30.761Z,24.55
2018-06-28T08:46:30.969Z,24.51
2018-06-28T08:47:30.801Z,24.69
2018-06-28T08:48:30.979Z,24.66
2018-06-28T08:49:31.006Z,24.73
2018-06-28T08:50:30.786Z,24.76
2018-06-28T08:51:30.792Z,24.85
2018-06-28T08:52:30.808Z,24.92
2018-06-28T08:53:30.814Z,24.91
2018-06-28T08:54:31.013Z,24.88
2018-06-28T08:55:30.822Z,24.92
2018-06-28T08:56:30.816Z,24.93
2018-06-28T08:57:30.889Z,25.04
2018-06-28T08:58:30.852Z,24.95
2018-06-28T08:59:30.844Z,24.91
2018-06-28T09:00:30.850Z,24.95
2018-06-28T09:01:30.843Z,25.14
2018-06-28T09:02:30.864Z,25.21
2018-06-28T09:03:30.867Z,25.21
2018-06-28T09:04:30.871Z,25.38
2018-06-28T09:05:30.866Z,25.35
2018-06-28T09:06:30.882Z,25.36
2018-06-28T09:07:30.890Z,25.23
2018-06-28T09:08:30.881Z,25.28
2018-06-28T09:09:30.887Z,25.41
2018-06-28T09:10:30.897Z,25.51
2018-06-28T09:11:30.897Z,25.54
2018-06-28T09:12:30.901Z,25.65
2018-06-28T09:13:30.908Z,25.80
2018-06-28T09:14:30.911Z,25.84
2018-06-28T09:15:30.921Z,25.72
2018-06-28T09:16:30.939Z,25.46
2018-06-28T09:17:30.930Z,25.29
2018-06-28T09:18:30.934Z,25.32
2018-06-28T09:19:30.942Z,25.16
2018-06-28T09:20:30.956Z,24.96
2018-06-28T09:21:30.952Z,24.77
2018-06-28T09:22:30.977Z,24.69
2018-06-28T09:23:30.973Z,24.33
2018-06-28T09:24:30.969Z,24.53
2018-06-28T09:25:30.973Z,24.69
2018-06-28T09:26:30.990Z,24.99
2018-06-28T09:27:30.986Z,25.11
2018-06-28T09:28:30.990Z,25.29
2018-06-28T09:29:31.009Z,25.40
2018-06-28T09:30:31.005Z,25.50
2018-06-28T09:31:31.008Z,25.48
2018-06-28T09:32:31.014Z,25.43
2018-06-28T09:33:31.023Z,25.21
2018-06-28T09:34:31.031Z,24.86
2018-06-28T09:35:31.031Z,24.70
2018-06-28T09:36:31.036Z,24.78
2018-06-28T09:37:31.042Z,24.74
2018-06-28T09:38:31.048Z,24.60
2018-06-28T09:39:31.050Z,24.57
2018-06-28T09:40:31.064Z,24.36
2018-06-28T09:41:31.073Z,24.30
2018-06-28T09:42:31.066Z,24.17
2018-06-28T09:43:31.071Z,24.06
2018-06-28T09:44:31.082Z,24.11
2018-06-28T09:45:31.110Z,24.11
2018-06-28T09:46:31.097Z,24.21
2018-06-28T09:47:31.115Z,24.61
2018-06-28T09:48:31.119Z,24.98
2018-06-28T09:49:31.114Z,25.01
2018-06-28T09:50:31.108Z,25.07
2018-06-28T09:51:31.145Z,25.04
2018-06-28T09:52:31.126Z,24.95
2018-06-28T09:53:31.147Z,25.10
2018-06-28T09:54:31.145Z,25.18
2018-06-28T09:55:31.134Z,25.29
2018-06-28T09:56:31.142Z,25.16
2018-06-28T09:57:31.143Z,24.96
2018-06-28T09:58:31.160Z,24.98
2018-06-28T09:59:31.155Z,24.85
2018-06-28T10:00:31.254Z,24.77
2018-06-28T10:01:31.177Z,24.78
2018-06-28T10:02:31.174Z,24.99
2018-06-28T10:03:31.189Z,24.85
2018-06-28T10:04:31.182Z,24.70
2018-06-28T10:05:31.192Z,24.68
2018-06-28T10:06:31.196Z,24.61
2018-06-28T10:07:31.228Z,24.61
2018-06-28T10:08:31.210Z,24.50
2018-06-28T10:09:31.225Z,24.57
2018-06-28T10:10:31.241Z,24.63
2018-06-28T10:11:31.232Z,24.77
2018-06-28T10:12:31.230Z,24.70
2018-06-28T10:13:31.253Z,24.65
2018-06-28T10:14:31.240Z,24.58
2018-06-28T10:15:31.253Z,24.81
2018-06-28T10:16:31.261Z,24.88
2018-06-28T10:17:31.267Z,24.77
2018-06-28T10:18:31.276Z,24.73
2018-06-28T10:19:31.289Z,24.48
2018-06-28T10:20:31.285Z,24.47
2018-06-28T10:21:31.284Z,24.21
2018-06-28T10:22:31.295Z,24.18
2018-06-28T10:23:31.297Z,24.28
2018-06-28T10:24:31.327Z,24.45
2018-06-28T10:25:31.298Z,24.36
2018-06-28T10:26:31.315Z,24.51
2018-06-28T10:27:31.310Z,24.68
2018-06-28T10:28:31.328Z,24.88
2018-06-28T10:29:31.334Z,24.85
2018-06-28T10:30:31.338Z,25.07
2018-06-28T10:31:31.347Z,25.31
2018-06-28T10:32:31.338Z,25.38
2018-06-28T10:33:31.351Z,25.31
2018-06-28T10:34:31.350Z,25.53
2018-06-28T10:35:31.383Z,25.70
2018-06-28T10:36:31.369Z,25.91
2018-06-28T10:37:31.376Z,25.91
2018-06-28T10:38:31.369Z,25.85
2018-06-28T10:39:31.388Z,25.85
2018-06-28T10:40:31.396Z,25.83
2018-06-28T10:41:31.399Z,25.93
2018-06-28T10:42:31.392Z,26.05
2018-06-28T10:43:31.397Z,26.06
2018-06-28T10:44:31.428Z,26.19
2018-06-28T10:45:31.425Z,26.25
2018-06-28T10:46:31.423Z,26.23
2018-06-28T10:47:31.477Z,25.93
2018-06-28T10:48:31.438Z,25.87
2018-06-28T10:49:31.431Z,25.51
2018-06-28T10:50:31.442Z,25.36
2018-06-28T10:51:31.442Z,25.43
2018-06-28T10:52:31.462Z,25.38
2018-06-28T10:53:31.666Z,25.32
2018-06-28T10:54:31.473Z,25.38
2018-06-28T10:55:31.464Z,25.46
2018-06-28T10:56:31.557Z,25.26
2018-06-28T10:57:31.498Z,25.14
2018-06-28T10:58:31.494Z,25.18
2018-06-28T10:59:31.530Z,25.33
2018-06-28T11:00:31.491Z,25.35
2018-06-28T11:01:31.510Z,25.43
2018-06-28T11:02:31.503Z,25.43
2018-06-28T11:03:31.524Z,25.23
2018-06-28T11:04:31.529Z,24.98
2018-06-28T11:05:31.577Z,24.95
2018-06-28T11:06:31.527Z,24.86
2018-06-28T11:07:31.596Z,24.70
2018-06-28T11:08:31.539Z,24.73
2018-06-28T11:09:31.555Z,24.63
2018-06-28T11:10:31.559Z,24.57
2018-06-28T11:11:31.558Z,24.55
2018-06-28T11:12:31.559Z,24.76
2018-06-28T11:13:31.583Z,24.77
2018-06-28T11:14:31.590Z,24.98
2018-06-28T11:15:31.602Z,25.06
2018-06-28T11:16:31.662Z,25.04
2018-06-28T11:17:31.590Z,24.86
2018-06-28T11:18:31.650Z,24.73
2018-06-28T11:19:31.604Z,24.63
2018-06-28T11:20:31.617Z,24.69
2018-06-28T11:21:31.617Z,24.80
2018-06-28T11:22:31.632Z,24.73
2018-06-28T11:23:31.652Z,24.74
2018-06-28T11:24:31.640Z,24.73
2018-06-28T11:25:31.635Z,24.69
2018-06-28T11:26:31.719Z,24.66
2018-06-28T11:27:31.660Z,24.85
2018-06-28T11:28:31.677Z,24.88
2018-06-28T11:29:31.657Z,24.95
2018-06-28T11:30:31.687Z,24.92
2018-06-28T11:31:31.679Z,24.98
2018-06-28T11:32:31.684Z,25.06
2018-06-28T11:33:31.689Z,25.03
2018-06-28T11:34:31.908Z,24.92
2018-06-28T11:35:31.722Z,24.84
2018-06-28T11:36:31.912Z,24.86
2018-06-28T11:37:31.728Z,25.07
2018-06-28T11:38:31.708Z,25.14
2018-06-28T11:39:31.725Z,25.08
2018-06-28T11:40:31.728Z,25.07
2018-06-28T11:41:31.735Z,25.11
2018-06-28T11:42:31.948Z,25.03
2018-06-28T11:43:31.736Z,24.92
2018-06-28T11:44:31.963Z,24.98
2018-06-28T11:45:31.748Z,24.98
2018-06-28T11:46:31.754Z,25.10
2018-06-28T11:47:31.769Z,25.10
2018-06-28T11:48:31.984Z,25.10
2018-06-28T11:49:31.779Z,25.07
2018-06-28T11:50:31.775Z,25.10
2018-06-28T11:51:31.794Z,25.33
2018-06-28T11:52:31.791Z,25.51
2018-06-28T11:53:31.806Z,25.51
2018-06-28T11:54:31.818Z,25.53
2018-06-28T11:55:31.803Z,25.47
2018-06-28T11:56:31.823Z,25.32
2018-06-28T11:57:31.827Z,25.16
2018-06-28T11:58:31.822Z,25.06
2018-06-28T11:59:31.840Z,25.07
2018-06-28T12:00:31.832Z,24.96
2018-06-28T12:01:31.848Z,25.07
2018-06-28T12:02:32.060Z,25.11
2018-06-28T12:03:32.050Z,25.38
2018-06-28T12:04:32.072Z,25.38
2018-06-28T12:05:31.865Z,25.51
2018-06-28T12:06:31.886Z,25.51
2018-06-28T12:07:31.883Z,25.59
2018-06-28T12:08:31.876Z,25.53
2018-06-28T12:09:31.891Z,25.72
2018-06-28T12:10:32.101Z,25.80
2018-06-28T12:11:32.103Z,25.78
2018-06-28T12:12:31.898Z,25.80
2018-06-28T12:13:31.908Z,25.73
2018-06-28T12:14:31.924Z,25.60
2018-06-28T12:15:31.917Z,25.73
2018-06-28T12:16:31.924Z,25.83
2018-06-28T12:17:31.930Z,25.75
2018-06-28T12:18:31.935Z,25.90
2018-06-28T12:19:31.943Z,25.83
2018-06-28T12:20:31.946Z,25.78
2018-06-28T12:21:31.966Z,25.69
2018-06-28T12:22:31.959Z,25.70
2018-06-28T12:23:32.179Z,25.68
2018-06-28T12:24:32.181Z,25.54
2018-06-28T12:25:31.988Z,25.55
2018-06-28T12:26:31.997Z,25.44
2018-06-28T12:27:32.010Z,25.50
2018-06-28T12:28:31.992Z,25.51
2018-06-28T12:29:31.998Z,25.60
2018-06-28T12:30:32.208Z,25.77
2018-06-28T12:31:32.029Z,25.72
2018-06-28T12:32:32.014Z,25.77
2018-06-28T12:33:32.021Z,25.73
2018-06-28T12:34:32.029Z,25.59
2018-06-28T12:35:32.049Z,25.43
2018-06-28T12:36:32.043Z,25.47
2018-06-28T12:37:32.048Z,25.28
2018-06-28T12:38:32.054Z,25.44
2018-06-28T12:39:32.059Z,25.51
2018-06-28T12:40:32.078Z,25.40
2018-06-28T12:41:32.068Z,25.26
2018-06-28T12:42:32.279Z,25.29
2018-06-28T12:43:32.087Z,25.31
2018-06-28T12:44:32.304Z,25.26
2018-06-28T12:45:32.104Z,25.23
2018-06-28T12:46:32.324Z,25.17
2018-06-28T12:47:32.105Z,25.22
2018-06-28T12:48:32.111Z,25.08
2018-06-28T12:49:32.132Z,25.08
2018-06-28T12:50:32.325Z,25.07
2018-06-28T12:51:32.129Z,25.17
2018-06-28T12:52:32.144Z,25.10